Trementina, New Mexico
Current Conditions -  °F | °C
As of 12:53 PM on Friday 31 Oct 2014 (Local Time) from KLVS Reporting Station
Clear Clear  
Wind Chill: 54°   Ceiling: Unl
Heat Index: 54°   Visibility: 10mi
Dew Point: 27°   Wind: 22mph
Humidity: 35%   Direction: 200°SSW
Pressure: 30.41"   Gusts: NA
Location:  35.46°N, 104.42°W
Report Text: KLVS 311853Z AUTO 20019KT 10SM CLR 12/M03 A3041 RMK AO2 SLP253 T01221028
Loading
Personal Weather Stations






























Interactive Weather Map
Tropical Storm Tracking
New forecast layout! Learn more

10-Day Weather Forecast

Advertisements
Track Severe Weather on mobile